createdAt,value
2023-03-07T00:01:04.670Z,13.38
2023-03-07T00:03:32.654Z,15.20
2023-03-07T00:06:11.839Z,14.70
2023-03-07T00:08:39.059Z,12.90
2023-03-07T00:11:08.650Z,12.43
2023-03-07T00:13:37.760Z,14.90
2023-03-07T00:16:06.977Z,14.38
2023-03-07T00:18:34.782Z,11.55
2023-03-07T00:21:07.082Z,13.82
2023-03-07T00:23:35.775Z,12.50
2023-03-07T00:26:05.375Z,13.80
2023-03-07T00:28:32.451Z,14.45
2023-03-07T00:31:01.311Z,15.73
2023-03-07T00:33:28.735Z,15.05
2023-03-07T00:35:57.764Z,15.63
2023-03-07T00:38:25.065Z,16.33
2023-03-07T00:41:08.792Z,13.70
2023-03-07T00:43:36.544Z,15.70
2023-03-07T00:46:03.698Z,12.98
2023-03-07T00:48:37.504Z,13.02
2023-03-07T00:51:06.564Z,16.45
2023-03-07T00:53:34.726Z,13.23
2023-03-07T00:56:14.806Z,15.60
2023-03-07T00:58:47.195Z,14.85
2023-03-07T01:01:17.397Z,14.35
2023-03-07T01:03:45.391Z,13.60
2023-03-07T01:06:15.355Z,13.38
2023-03-07T01:08:46.524Z,14.25
2023-03-07T01:11:16.242Z,14.60
2023-03-07T01:13:43.287Z,14.30
2023-03-07T01:16:17.414Z,15.75
2023-03-07T01:18:52.213Z,15.27
2023-03-07T01:21:21.706Z,15.57
2023-03-07T01:23:49.901Z,15.07
2023-03-07T01:26:22.595Z,12.32
2023-03-07T01:28:56.155Z,13.60
2023-03-07T01:31:23.575Z,13.13
2023-03-07T01:33:52.724Z,11.32
2023-03-07T01:36:31.279Z,15.50
2023-03-07T01:39:10.808Z,12.95
2023-03-07T01:41:44.552Z,13.27
2023-03-07T01:44:21.268Z,13.85
2023-03-07T01:46:54.491Z,16.00
2023-03-07T01:49:27.320Z,12.52
2023-03-07T01:52:08.925Z,16.08
2023-03-07T01:54:42.212Z,13.45
2023-03-07T01:57:09.796Z,12.23
2023-03-07T01:59:44.628Z,13.70
2023-03-07T02:03:02.001Z,13.50
2023-03-07T02:05:38.373Z,13.43
2023-03-07T02:08:08.533Z,14.82
2023-03-07T02:10:37.198Z,12.95
2023-03-07T02:13:04.315Z,14.32
2023-03-07T02:15:33.369Z,13.93
2023-03-07T02:18:00.740Z,11.63
2023-03-07T02:20:48.118Z,13.27
2023-03-07T02:23:27.290Z,14.45
2023-03-07T02:26:01.451Z,14.40
2023-03-07T02:28:29.623Z,13.73
2023-03-07T02:31:01.203Z,14.27
2023-03-07T02:33:32.032Z,13.98
2023-03-07T02:36:11.303Z,12.10
2023-03-07T02:38:46.370Z,16.50
2023-03-07T02:41:15.521Z,15.15
2023-03-07T02:43:42.630Z,13.90
2023-03-07T02:46:10.213Z,15.48
2023-03-07T02:48:39.932Z,14.57
2023-03-07T02:51:07.676Z,13.30
2023-03-07T02:53:37.578Z,15.20
2023-03-07T02:56:05.651Z,15.95
2023-03-07T02:58:35.578Z,15.90
2023-03-07T03:01:05.845Z,14.40
2023-03-07T03:03:38.851Z,15.52
2023-03-07T03:06:32.822Z,14.98
2023-03-07T03:09:09.896Z,12.95
2023-03-07T03:19:21.992Z,14.32
2023-03-07T03:21:49.104Z,13.63
2023-03-07T03:24:16.955Z,15.93
2023-03-07T03:26:45.656Z,13.63
2023-03-07T03:29:13.163Z,14.65
2023-03-07T03:31:40.643Z,13.73
2023-03-07T03:34:08.200Z,13.70
2023-03-07T03:36:35.213Z,15.70
2023-03-07T03:39:10.933Z,12.77
2023-03-07T03:41:47.749Z,13.80
2023-03-07T03:44:16.351Z,14.15
2023-03-07T03:46:43.656Z,15.10
2023-03-07T03:49:22.423Z,12.65
2023-03-07T03:51:51.491Z,14.02
2023-03-07T03:54:22.255Z,15.60
2023-03-07T03:56:50.732Z,14.43
2023-03-07T03:59:18.303Z,12.25
2023-03-07T04:01:54.941Z,13.48
2023-03-07T04:04:31.641Z,12.50
2023-03-07T04:07:06.893Z,12.07
2023-03-07T04:09:34.291Z,15.73
2023-03-07T04:12:02.863Z,12.35
2023-03-07T04:14:30.023Z,13.05
2023-03-07T04:17:00.445Z,15.80
2023-03-07T04:19:30.526Z,12.18
2023-03-07T04:21:58.778Z,14.18
2023-03-07T04:24:28.656Z,12.60
2023-03-07T04:26:58.421Z,14.63
2023-03-07T04:29:26.760Z,13.15
2023-03-07T04:32:13.050Z,15.77
2023-03-07T04:34:42.134Z,14.65
2023-03-07T04:37:12.386Z,13.40
2023-03-07T04:39:39.604Z,15.02
2023-03-07T04:42:08.614Z,11.13
2023-03-07T04:44:36.999Z,12.52
2023-03-07T04:47:11.688Z,14.38
2023-03-07T04:50:18.914Z,13.20
2023-03-07T04:58:35.452Z,11.85
2023-03-07T05:01:04.854Z,13.90
2023-03-07T05:03:33.463Z,14.93
2023-03-07T05:06:10.577Z,13.02
2023-03-07T05:08:37.828Z,13.80
2023-03-07T05:11:04.916Z,12.10
2023-03-07T05:13:33.410Z,14.02
2023-03-07T05:16:01.033Z,13.48
2023-03-07T05:18:29.422Z,12.38
2023-03-07T05:20:58.467Z,13.20
2023-03-07T05:23:26.848Z,13.68
2023-03-07T05:25:54.890Z,14.63
2023-03-07T05:28:22.016Z,12.60
2023-03-07T05:30:49.528Z,12.18
2023-03-07T05:33:26.360Z,10.48
2023-03-07T05:36:01.233Z,11.75
2023-03-07T05:38:32.466Z,14.70
2023-03-07T05:41:02.590Z,11.80
2023-03-07T05:43:29.719Z,12.23
2023-03-07T05:45:57.329Z,12.95
2023-03-07T06:24:02.040Z,14.20
2023-03-07T06:26:44.460Z,13.75
2023-03-07T06:29:22.034Z,13.00
2023-03-07T06:32:05.931Z,12.32
2023-03-07T06:34:42.967Z,13.93
2023-03-07T06:37:11.398Z,14.55
2023-03-07T06:39:53.644Z,13.45
2023-03-07T06:42:34.334Z,12.98
2023-03-07T06:45:05.475Z,13.32
2023-03-07T06:47:37.592Z,13.07
2023-03-07T06:50:35.938Z,13.63
2023-03-07T06:53:17.239Z,15.60
2023-03-07T06:55:51.502Z,15.52
2023-03-07T06:58:19.909Z,14.60
2023-03-07T07:00:47.611Z,12.10
2023-03-07T07:11:39.246Z,14.48
2023-03-07T07:14:23.631Z,15.60
2023-03-07T07:16:59.527Z,18.48
2023-03-07T07:19:29.542Z,13.00
2023-03-07T07:21:59.888Z,12.32
2023-03-07T07:24:39.745Z,12.80
2023-03-07T21:18:17.170Z,3.88
2023-03-07T22:50:02.850Z,3.90
2023-03-07T23:04:22.302Z,3.50
2023-03-07T23:11:34.494Z,5.25
2023-03-07T23:14:31.498Z,6.63
2023-03-07T23:22:08.761Z,4.90
2023-03-07T23:29:16.301Z,3.45
2023-03-07T23:50:17.451Z,4.20
